Time,TemperatureF,DewpointF,PressureIn,WindDirection,WindDirectionDegrees,WindSpeedMPH,WindSpeedGustMPH,Humidity,HourlyPrecipIn,Conditions,Clouds,dailyrainin,SoftwareType,DateUTC
2013-05-23 00:05:00,65.7,65.4,29.72,South,180,0.0,-999.0,99,-99.99,,,0.00,Acu-Link.com,2013-05-23 04:05:00,
2013-05-23 00:20:00,65.7,65.4,29.73,SW,225,0.0,-999.0,99,-99.99,,,0.00,Acu-Link.com,2013-05-23 04:20:00,
2013-05-23 00:35:00,66.2,65.9,29.73,SE,135,2.2,-999.0,99,-99.99,,,0.01,Acu-Link.com,2013-05-23 04:35:00,
2013-05-23 00:50:00,65.8,65.5,29.73,SSE,157,2.7,-999.0,99,-99.99,,,0.04,Acu-Link.com,2013-05-23 04:50:00,
2013-05-23 01:05:00,65.8,65.5,29.72,East,90,2.2,-999.0,99,-99.99,,,0.04,Acu-Link.com,2013-05-23 05:05:00,
2013-05-23 01:20:00,65.8,65.5,29.73,SSE,157,0.0,-999.0,99,-99.99,,,0.04,Acu-Link.com,2013-05-23 05:20:00,
2013-05-23 01:36:00,65.5,65.2,29.73,SSE,157,0.0,-999.0,99,-99.99,,,0.04,Acu-Link.com,2013-05-23 05:36:00,
2013-05-23 01:51:00,65.1,64.8,29.73,SSE,157,0.0,-999.0,99,-99.99,,,0.04,Acu-Link.com,2013-05-23 05:51:00,
2013-05-23 02:06:00,64.8,64.5,29.73,SSE,157,0.0,-999.0,99,-99.99,,,0.04,Acu-Link.com,2013-05-23 06:06:00,
2013-05-23 02:21:00,64.4,64.1,29.73,SSE,157,0.0,-999.0,99,-99.99,,,0.04,Acu-Link.com,2013-05-23 06:21:00,
2013-05-23 02:36:00,64.2,63.9,29.73,SSE,157,0.0,-999.0,99,-99.99,,,0.04,Acu-Link.com,2013-05-23 06:36:00,
2013-05-23 02:51:00,64.0,63.7,29.73,SSE,157,0.0,-999.0,99,-99.99,,,0.04,Acu-Link.com,2013-05-23 06:51:00,
2013-05-23 03:06:00,63.5,63.2,29.73,ESE,112,0.0,-999.0,99,-99.99,,,0.04,Acu-Link.com,2013-05-23 07:06:00,
2013-05-23 03:21:00,63.5,63.2,29.73,ESE,112,0.0,-999.0,99,-99.99,,,0.04,Acu-Link.com,2013-05-23 07:21:00,
2013-05-23 03:36:00,63.5,63.2,29.74,East,90,0.0,-999.0,99,-99.99,,,0.04,Acu-Link.com,2013-05-23 07:36:00,
2013-05-23 03:52:00,63.5,63.2,29.75,East,90,0.0,-999.0,99,-99.99,,,0.04,Acu-Link.com,2013-05-23 07:52:00,
2013-05-23 04:08:00,63.5,63.2,29.75,ESE,112,0.0,-999.0,99,-99.99,,,0.04,Acu-Link.com,2013-05-23 08:08:00,
2013-05-23 04:23:00,63.1,62.8,29.75,ESE,112,0.0,-999.0,99,-99.99,,,0.04,Acu-Link.com,2013-05-23 08:23:00,
2013-05-23 04:38:00,63.0,62.7,29.75,ESE,112,0.0,-999.0,99,-99.99,,,0.04,Acu-Link.com,2013-05-23 08:38:00,
2013-05-23 04:53:00,62.4,62.1,29.76,SSE,157,0.0,-999.0,99,-99.99,,,0.04,Acu-Link.com,2013-05-23 08:53:00,
2013-05-23 05:09:00,62.4,62.1,29.76,SSE,157,0.0,-999.0,99,-99.99,,,0.04,Acu-Link.com,2013-05-23 09:09:00,
2013-05-23 05:24:00,62.6,62.3,29.77,SSE,157,1.7,-999.0,99,-99.99,,,0.04,Acu-Link.com,2013-05-23 09:24:00,
2013-05-23 05:39:00,62.8,62.5,29.77,ESE,112,0.0,-999.0,99,-99.99,,,0.04,Acu-Link.com,2013-05-23 09:39:00,
2013-05-23 05:54:00,61.9,61.6,29.78,SSE,157,0.0,-999.0,99,-99.99,,,0.05,Acu-Link.com,2013-05-23 09:54:00,
2013-05-23 06:09:00,61.3,61.0,29.78,SE,135,0.0,-999.0,99,-99.99,,,0.05,Acu-Link.com,2013-05-23 10:09:00,
2013-05-23 06:24:00,61.3,61.0,29.78,SE,135,0.0,-999.0,99,-99.99,,,0.05,Acu-Link.com,2013-05-23 10:24:00,
2013-05-23 06:40:00,61.2,60.9,29.79,SSE,157,0.0,-999.0,99,-99.99,,,0.05,Acu-Link.com,2013-05-23 10:40:00,
2013-05-23 06:55:00,61.3,61.0,29.79,SSE,157,0.0,-999.0,99,-99.99,,,0.05,Acu-Link.com,2013-05-23 10:55:00,
2013-05-23 07:10:00,61.3,61.0,29.79,SE,135,0.0,-999.0,99,-99.99,,,0.05,Acu-Link.com,2013-05-23 11:10:00,
2013-05-23 07:25:00,61.9,61.6,29.80,SSE,157,0.0,-999.0,99,-99.99,,,0.05,Acu-Link.com,2013-05-23 11:25:00,
2013-05-23 07:40:00,62.2,61.9,29.80,SSE,157,0.0,-999.0,99,-99.99,,,0.05,Acu-Link.com,2013-05-23 11:40:00,
2013-05-23 07:55:00,63.0,62.7,29.80,SSE,157,0.0,-999.0,99,-99.99,,,0.05,Acu-Link.com,2013-05-23 11:55:00,
2013-05-23 08:10:00,63.3,63.0,29.80,ESE,112,0.0,-999.0,99,-99.99,,,0.05,Acu-Link.com,2013-05-23 12:10:00,
2013-05-23 08:25:00,64.0,63.7,29.81,ESE,112,0.0,-999.0,99,-99.99,,,0.05,Acu-Link.com,2013-05-23 12:25:00,
2013-05-23 08:40:00,64.6,64.3,29.81,SE,135,0.0,-999.0,99,-99.99,,,0.05,Acu-Link.com,2013-05-23 12:40:00,
2013-05-23 08:56:00,65.1,64.8,29.81,SSE,157,0.0,-999.0,99,-99.99,,,0.05,Acu-Link.com,2013-05-23 12:56:00,
2013-05-23 09:11:00,66.2,65.9,29.81,SSE,157,0.0,-999.0,99,-99.99,,,0.05,Acu-Link.com,2013-05-23 13:11:00,
2013-05-23 09:26:00,67.8,67.5,29.81,ESE,112,0.0,-999.0,99,-99.99,,,0.05,Acu-Link.com,2013-05-23 13:26:00,
2013-05-23 09:41:00,68.5,68.2,29.81,SSE,157,0.0,-999.0,99,-99.99,,,0.05,Acu-Link.com,2013-05-23 13:41:00,
2013-05-23 09:56:00,68.0,67.7,29.81,SSE,157,1.7,-999.0,99,-99.99,,,0.05,Acu-Link.com,2013-05-23 13:56:00,
2013-05-23 10:11:00,68.5,68.2,29.81,SE,135,0.0,-999.0,99,-99.99,,,0.05,Acu-Link.com,2013-05-23 14:11:00,
2013-05-23 10:26:00,69.8,68.0,29.81,NNW,337,0.0,-999.0,94,-99.99,,,0.05,Acu-Link.com,2013-05-23 14:26:00,
2013-05-23 10:41:00,70.3,68.2,29.80,NE,45,1.1,-999.0,93,-99.99,,,0.05,Acu-Link.com,2013-05-23 14:41:00,
2013-05-23 10:56:00,71.4,68.3,29.80,NNE,22,3.2,-999.0,90,-99.99,,,0.05,Acu-Link.com,2013-05-23 14:56:00,
2013-05-23 11:12:00,73.6,67.8,29.80,SE,135,3.7,-999.0,82,-99.99,,,0.05,Acu-Link.com,2013-05-23 15:12:00,
2013-05-23 11:27:00,74.3,68.4,29.79,SSE,157,0.0,-999.0,82,-99.99,,,0.05,Acu-Link.com,2013-05-23 15:27:00,
2013-05-23 11:42:00,76.5,69.9,29.79,ESE,112,0.0,-999.0,80,-99.99,,,0.05,Acu-Link.com,2013-05-23 15:42:00,
2013-05-23 11:57:00,79.7,66.9,29.79,ESE,112,2.7,-999.0,65,-99.99,,,0.05,Acu-Link.com,2013-05-23 15:57:00,
2013-05-23 12:12:00,77.9,67.7,29.78,South,180,3.2,-999.0,71,-99.99,,,0.05,Acu-Link.com,2013-05-23 16:12:00,
2013-05-23 12:27:00,79.5,68.8,29.78,East,90,2.7,-999.0,70,-99.99,,,0.05,Acu-Link.com,2013-05-23 16:27:00,
2013-05-23 12:42:00,79.5,65.8,29.77,SSE,157,4.7,-999.0,63,-99.99,,,0.05,Acu-Link.com,2013-05-23 16:42:00,
2013-05-23 12:57:00,80.2,66.0,29.76,ESE,112,1.7,-999.0,62,-99.99,,,0.05,Acu-Link.com,2013-05-23 16:57:00,
2013-05-23 13:12:00,81.5,66.7,29.75,West,270,2.2,-999.0,61,-99.99,,,0.05,Acu-Link.com,2013-05-23 17:12:00,
2013-05-23 13:28:00,82.4,65.6,29.75,SSE,157,2.2,-999.0,57,-99.99,,,0.05,Acu-Link.com,2013-05-23 17:28:00,
2013-05-23 13:43:00,80.2,67.3,29.75,SSE,157,1.1,-999.0,65,-99.99,,,0.05,Acu-Link.com,2013-05-23 17:43:00,
2013-05-23 13:58:00,82.4,65.6,29.76,North,0,6.3,-999.0,57,-99.99,,,0.05,Acu-Link.com,2013-05-23 17:58:00,
2013-05-23 14:13:00,82.0,65.2,29.76,NE,45,2.7,-999.0,57,-99.99,,,0.05,Acu-Link.com,2013-05-23 18:13:00,
2013-05-23 14:28:00,79.5,63.9,29.75,ESE,112,2.7,-999.0,59,-99.99,,,0.05,Acu-Link.com,2013-05-23 18:28:00,
2013-05-23 14:43:00,81.9,64.1,29.75,SSW,202,3.7,-999.0,55,-99.99,,,0.05,Acu-Link.com,2013-05-23 18:43:00,
2013-05-23 14:58:00,83.1,61.3,29.76,South,180,8.9,-999.0,48,-99.99,,,0.05,Acu-Link.com,2013-05-23 18:58:00,
2013-05-23 15:13:00,82.8,59.3,29.75,South,180,5.8,-999.0,45,-99.99,,,0.05,Acu-Link.com,2013-05-23 19:13:00,
2013-05-23 15:28:00,82.2,62.2,29.75,SSE,157,5.8,-999.0,51,-99.99,,,0.05,Acu-Link.com,2013-05-23 19:28:00,
2013-05-23 15:43:00,82.0,62.6,29.75,WSW,247,2.7,-999.0,52,-99.99,,,0.05,Acu-Link.com,2013-05-23 19:43:00,
2013-05-23 15:59:00,82.4,60.7,29.73,SSE,157,3.7,-999.0,48,-99.99,,,0.05,Acu-Link.com,2013-05-23 19:59:00,
2013-05-23 16:14:00,82.0,57.3,29.73,SSW,202,3.7,-999.0,43,-99.99,,,0.05,Acu-Link.com,2013-05-23 20:14:00,
2013-05-23 16:29:00,81.5,59.3,29.74,SSE,157,3.7,-999.0,47,-99.99,,,0.05,Acu-Link.com,2013-05-23 20:29:00,
2013-05-23 16:44:00,83.1,58.9,29.75,NNE,22,3.7,-999.0,44,-99.99,,,0.05,Acu-Link.com,2013-05-23 20:44:00,
2013-05-23 16:59:00,82.2,58.1,29.74,ESE,112,5.3,-999.0,44,-99.99,,,0.05,Acu-Link.com,2013-05-23 20:59:00,
2013-05-23 17:14:00,81.1,58.3,29.75,ESE,112,2.7,-999.0,46,-99.99,,,0.05,Acu-Link.com,2013-05-23 21:14:00,
2013-05-23 17:29:00,81.1,57.1,29.75,South,180,6.8,-999.0,44,-99.99,,,0.05,Acu-Link.com,2013-05-23 21:29:00,
2013-05-23 17:44:00,80.8,57.5,29.75,West,270,2.7,-999.0,45,-99.99,,,0.05,Acu-Link.com,2013-05-23 21:44:00,
2013-05-23 17:59:00,84.2,60.5,29.76,SSW,202,8.9,-999.0,45,-99.99,,,0.05,Acu-Link.com,2013-05-23 21:59:00,
2013-05-23 18:15:00,81.1,57.7,29.76,ENE,67,1.7,-999.0,45,-99.99,,,0.05,Acu-Link.com,2013-05-23 22:15:00,
2013-05-23 18:30:00,79.0,57.6,29.76,SE,135,6.3,-999.0,48,-99.99,,,0.05,Acu-Link.com,2013-05-23 22:30:00,
2013-05-23 18:45:00,79.5,59.2,29.76,SSW,202,0.0,-999.0,50,-99.99,,,0.05,Acu-Link.com,2013-05-23 22:45:00,
2013-05-23 19:00:00,80.4,57.7,29.76,South,180,0.0,-999.0,46,-99.99,,,0.05,Acu-Link.com,2013-05-23 23:00:00,
2013-05-23 19:15:00,81.3,58.5,29.76,NNE,22,2.7,-999.0,46,-99.99,,,0.05,Acu-Link.com,2013-05-23 23:15:00,
2013-05-23 19:30:00,77.4,57.8,29.76,NW,315,1.7,-999.0,51,-99.99,,,0.05,Acu-Link.com,2013-05-23 23:30:00,
2013-05-23 19:45:00,75.9,57.0,29.77,SSE,157,1.1,-999.0,52,-99.99,,,0.05,Acu-Link.com,2013-05-23 23:45:00,
2013-05-23 20:00:00,74.7,58.4,29.78,SW,225,2.7,-999.0,57,-99.99,,,0.05,Acu-Link.com,2013-05-24 00:00:00,
2013-05-23 20:15:00,73.9,58.7,29.78,SW,225,0.0,-999.0,59,-99.99,,,0.05,Acu-Link.com,2013-05-24 00:15:00,
2013-05-23 20:31:00,72.7,58.9,29.79,NE,45,2.7,-999.0,62,-99.99,,,0.05,Acu-Link.com,2013-05-24 00:31:00,
2013-05-23 20:46:00,72.0,58.3,29.80,North,0,2.2,-999.0,62,-99.99,,,0.05,Acu-Link.com,2013-05-24 00:46:00,
2013-05-23 21:01:00,70.7,58.3,29.80,NNW,337,1.7,-999.0,65,-99.99,,,0.05,Acu-Link.com,2013-05-24 01:01:00,
2013-05-23 21:16:00,70.5,57.7,29.80,ESE,112,1.7,-999.0,64,-99.99,,,0.05,Acu-Link.com,2013-05-24 01:16:00,
2013-05-23 21:31:00,70.2,57.4,29.81,ESE,112,3.7,-999.0,64,-99.99,,,0.05,Acu-Link.com,2013-05-24 01:31:00,
2013-05-23 21:46:00,69.4,58.0,29.81,East,90,0.0,-999.0,67,-99.99,,,0.05,Acu-Link.com,2013-05-24 01:46:00,
2013-05-23 22:01:00,68.5,57.5,29.82,NNW,337,0.0,-999.0,68,-99.99,,,0.05,Acu-Link.com,2013-05-24 02:01:00,
2013-05-23 22:16:00,67.8,58.8,29.82,SSE,157,0.0,-999.0,73,-99.99,,,0.05,Acu-Link.com,2013-05-24 02:16:00,
2013-05-23 22:31:00,66.7,58.5,29.83,East,90,1.7,-999.0,75,-99.99,,,0.05,Acu-Link.com,2013-05-24 02:31:00,
2013-05-23 22:47:00,66.7,58.9,29.84,SE,135,0.0,-999.0,76,-99.99,,,0.05,Acu-Link.com,2013-05-24 02:47:00,
2013-05-23 23:02:00,66.6,58.4,29.84,NNW,337,0.0,-999.0,75,-99.99,,,0.05,Acu-Link.com,2013-05-24 03:02:00,
2013-05-23 23:17:00,66.6,57.7,29.84,WNW,292,2.2,-999.0,73,-99.99,,,0.05,Acu-Link.com,2013-05-24 03:17:00,
2013-05-23 23:32:00,66.2,56.9,29.84,NNW,337,1.1,-999.0,72,-99.99,,,0.05,Acu-Link.com,2013-05-24 03:32:00,
2013-05-23 23:47:00,65.7,56.0,29.85,SSE,157,1.1,-999.0,71,-99.99,,,0.05,Acu-Link.com,2013-05-24 03:47:00,